sensor_id;sensor_type;location;lat;lon;timestamp;P1;durP1;ratioP1;P2;durP2;ratioP2
20287;SDS011;10303;51.960;8.372;2023-03-01T00:01:20;3.83;;;3.23;;
20287;SDS011;10303;51.960;8.372;2023-03-01T00:03:49;3.63;;;3.07;;
20287;SDS011;10303;51.960;8.372;2023-03-01T00:06:16;4.77;;;2.83;;
20287;SDS011;10303;51.960;8.372;2023-03-01T00:08:43;5.23;;;2.57;;
20287;SDS011;10303;51.960;8.372;2023-03-01T00:11:12;3.30;;;2.63;;
20287;SDS011;10303;51.960;8.372;2023-03-01T00:13:42;3.27;;;2.37;;
20287;SDS011;10303;51.960;8.372;2023-03-01T00:16:12;3.60;;;2.63;;
20287;SDS011;10303;51.960;8.372;2023-03-01T00:18:44;5.03;;;3.17;;
20287;SDS011;10303;51.960;8.372;2023-03-01T00:21:10;3.73;;;2.60;;
20287;SDS011;10303;51.960;8.372;2023-03-01T00:23:37;3.00;;;2.63;;
20287;SDS011;10303;51.960;8.372;2023-03-01T00:26:07;3.77;;;2.53;;
20287;SDS011;10303;51.960;8.372;2023-03-01T00:28:38;2.43;;;1.90;;
20287;SDS011;10303;51.960;8.372;2023-03-01T00:31:05;2.60;;;2.03;;
20287;SDS011;10303;51.960;8.372;2023-03-01T00:33:34;3.23;;;2.37;;
20287;SDS011;10303;51.960;8.372;2023-03-01T00:36:00;2.27;;;2.07;;
20287;SDS011;10303;51.960;8.372;2023-03-01T00:38:26;3.00;;;2.30;;
20287;SDS011;10303;51.960;8.372;2023-03-01T00:40:52;2.13;;;1.63;;
20287;SDS011;10303;51.960;8.372;2023-03-01T00:43:18;3.63;;;1.73;;
20287;SDS011;10303;51.960;8.372;2023-03-01T00:45:45;2.90;;;2.00;;
20287;SDS011;10303;51.960;8.372;2023-03-01T00:48:10;2.37;;;2.10;;
20287;SDS011;10303;51.960;8.372;2023-03-01T00:50:36;2.93;;;2.13;;
20287;SDS011;10303;51.960;8.372;2023-03-01T00:53:02;2.17;;;1.90;;
20287;SDS011;10303;51.960;8.372;2023-03-01T00:55:30;2.10;;;1.93;;
20287;SDS011;10303;51.960;8.372;2023-03-01T00:57:56;2.80;;;2.00;;
20287;SDS011;10303;51.960;8.372;2023-03-01T01:00:22;3.20;;;2.27;;
20287;SDS011;10303;51.960;8.372;2023-03-01T01:02:48;2.37;;;2.13;;
20287;SDS011;10303;51.960;8.372;2023-03-01T01:05:14;3.10;;;2.37;;
20287;SDS011;10303;51.960;8.372;2023-03-01T01:07:46;2.10;;;1.90;;
20287;SDS011;10303;51.960;8.372;2023-03-01T01:10:13;2.90;;;1.60;;
20287;SDS011;10303;51.960;8.372;2023-03-01T01:12:43;1.80;;;1.70;;
20287;SDS011;10303;51.960;8.372;2023-03-01T01:15:10;2.37;;;1.70;;
20287;SDS011;10303;51.960;8.372;2023-03-01T01:17:39;1.80;;;1.70;;
20287;SDS011;10303;51.960;8.372;2023-03-01T01:20:24;2.90;;;1.50;;
20287;SDS011;10303;51.960;8.372;2023-03-01T01:22:51;1.93;;;1.67;;
20287;SDS011;10303;51.960;8.372;2023-03-01T01:25:17;2.47;;;1.67;;
20287;SDS011;10303;51.960;8.372;2023-03-01T01:27:43;1.73;;;1.50;;
20287;SDS011;10303;51.960;8.372;2023-03-01T01:30:10;2.27;;;1.90;;
20287;SDS011;10303;51.960;8.372;2023-03-01T01:32:36;1.87;;;1.77;;
20287;SDS011;10303;51.960;8.372;2023-03-01T01:35:03;2.33;;;1.47;;
20287;SDS011;10303;51.960;8.372;2023-03-01T01:37:29;1.87;;;1.70;;
20287;SDS011;10303;51.960;8.372;2023-03-01T01:39:58;1.60;;;1.50;;
20287;SDS011;10303;51.960;8.372;2023-03-01T01:42:25;2.23;;;1.50;;
20287;SDS011;10303;51.960;8.372;2023-03-01T01:48:10;2.43;;;1.30;;
20287;SDS011;10303;51.960;8.372;2023-03-01T01:50:43;1.70;;;1.60;;
20287;SDS011;10303;51.960;8.372;2023-03-01T01:53:12;1.70;;;1.40;;
20287;SDS011;10303;51.960;8.372;2023-03-01T01:55:45;1.70;;;1.23;;
20287;SDS011;10303;51.960;8.372;2023-03-01T01:58:18;1.73;;;1.63;;
20287;SDS011;10303;51.960;8.372;2023-03-01T02:00:47;2.47;;;1.97;;
20287;SDS011;10303;51.960;8.372;2023-03-01T02:03:14;2.23;;;1.63;;
20287;SDS011;10303;51.960;8.372;2023-03-01T02:06:37;1.67;;;1.57;;
20287;SDS011;10303;51.960;8.372;2023-03-01T02:09:02;2.77;;;1.57;;
20287;SDS011;10303;51.960;8.372;2023-03-01T02:11:35;3.43;;;1.77;;
20287;SDS011;10303;51.960;8.372;2023-03-01T02:14:03;1.97;;;1.87;;
20287;SDS011;10303;51.960;8.372;2023-03-01T02:16:29;2.50;;;1.87;;
20287;SDS011;10303;51.960;8.372;2023-03-01T02:18:56;2.17;;;1.77;;
20287;SDS011;10303;51.960;8.372;2023-03-01T02:24:34;2.20;;;1.60;;
20287;SDS011;10303;51.960;8.372;2023-03-01T02:27:38;1.77;;;1.27;;
20287;SDS011;10303;51.960;8.372;2023-03-01T02:30:20;2.23;;;1.77;;
20287;SDS011;10303;51.960;8.372;2023-03-01T02:32:47;1.43;;;1.33;;
20287;SDS011;10303;51.960;8.372;2023-03-01T02:35:17;2.10;;;1.73;;
20287;SDS011;10303;51.960;8.372;2023-03-01T02:37:44;2.07;;;1.43;;
20287;SDS011;10303;51.960;8.372;2023-03-01T02:40:16;1.87;;;1.60;;
20287;SDS011;10303;51.960;8.372;2023-03-01T02:42:51;1.63;;;1.53;;
20287;SDS011;10303;51.960;8.372;2023-03-01T02:45:21;2.07;;;1.97;;
20287;SDS011;10303;51.960;8.372;2023-03-01T02:47:47;1.83;;;1.53;;
20287;SDS011;10303;51.960;8.372;2023-03-01T02:53:04;1.60;;;1.40;;
20287;SDS011;10303;51.960;8.372;2023-03-01T02:55:41;1.53;;;1.43;;
20287;SDS011;10303;51.960;8.372;2023-03-01T02:58:08;2.23;;;1.53;;
20287;SDS011;10303;51.960;8.372;2023-03-01T03:00:39;3.63;;;1.70;;
20287;SDS011;10303;51.960;8.372;2023-03-01T03:03:15;2.43;;;1.77;;
20287;SDS011;10303;51.960;8.372;2023-03-01T03:05:45;2.73;;;1.87;;
20287;SDS011;10303;51.960;8.372;2023-03-01T03:08:12;2.13;;;1.93;;
20287;SDS011;10303;51.960;8.372;2023-03-01T03:10:40;1.70;;;1.57;;
20287;SDS011;10303;51.960;8.372;2023-03-01T03:13:12;1.73;;;1.57;;
20287;SDS011;10303;51.960;8.372;2023-03-01T03:15:39;2.20;;;2.00;;
20287;SDS011;10303;51.960;8.372;2023-03-01T03:18:08;1.53;;;1.43;;
20287;SDS011;10303;51.960;8.372;2023-03-01T03:20:38;1.93;;;1.73;;
20287;SDS011;10303;51.960;8.372;2023-03-01T03:23:06;3.33;;;1.83;;
20287;SDS011;10303;51.960;8.372;2023-03-01T03:25:32;1.90;;;1.53;;
20287;SDS011;10303;51.960;8.372;2023-03-01T03:28:03;1.70;;;1.47;;
20287;SDS011;10303;51.960;8.372;2023-03-01T03:30:35;1.60;;;1.40;;
20287;SDS011;10303;51.960;8.372;2023-03-01T03:33:04;2.33;;;1.90;;
20287;SDS011;10303;51.960;8.372;2023-03-01T03:35:32;1.80;;;1.70;;
20287;SDS011;10303;51.960;8.372;2023-03-01T03:38:13;2.17;;;1.80;;
20287;SDS011;10303;51.960;8.372;2023-03-01T03:40:46;2.93;;;2.13;;
20287;SDS011;10303;51.960;8.372;2023-03-01T03:43:16;1.90;;;1.63;;
20287;SDS011;10303;51.960;8.372;2023-03-01T03:45:45;2.23;;;2.00;;
20287;SDS011;10303;51.960;8.372;2023-03-01T03:48:14;2.47;;;2.27;;
20287;SDS011;10303;51.960;8.372;2023-03-01T03:50:41;1.53;;;1.43;;
20287;SDS011;10303;51.960;8.372;2023-03-01T03:53:14;3.03;;;1.50;;
20287;SDS011;10303;51.960;8.372;2023-03-01T03:55:40;6.27;;;2.30;;
20287;SDS011;10303;51.960;8.372;2023-03-01T03:58:07;2.93;;;2.30;;
20287;SDS011;10303;51.960;8.372;2023-03-01T04:00:36;1.97;;;1.87;;
20287;SDS011;10303;51.960;8.372;2023-03-01T04:03:05;2.37;;;1.97;;
20287;SDS011;10303;51.960;8.372;2023-03-01T04:05:32;2.50;;;1.90;;
20287;SDS011;10303;51.960;8.372;2023-03-01T04:07:59;2.30;;;1.97;;
20287;SDS011;10303;51.960;8.372;2023-03-01T04:10:28;1.77;;;1.60;;
20287;SDS011;10303;51.960;8.372;2023-03-01T04:12:58;2.60;;;1.70;;
20287;SDS011;10303;51.960;8.372;2023-03-01T04:15:24;2.33;;;2.13;;
20287;SDS011;10303;51.960;8.372;2023-03-01T04:17:52;1.37;;;1.27;;
20287;SDS011;10303;51.960;8.372;2023-03-01T04:20:20;2.17;;;1.80;;
20287;SDS011;10303;51.960;8.372;2023-03-01T04:22:50;2.37;;;2.00;;
20287;SDS011;10303;51.960;8.372;2023-03-01T04:25:51;2.43;;;1.60;;
20287;SDS011;10303;51.960;8.372;2023-03-01T04:28:21;1.87;;;1.67;;
20287;SDS011;10303;51.960;8.372;2023-03-01T04:30:56;1.83;;;1.60;;
20287;SDS011;10303;51.960;8.372;2023-03-01T04:33:26;1.73;;;1.40;;
20287;SDS011;10303;51.960;8.372;2023-03-01T04:35:52;2.80;;;2.23;;
20287;SDS011;10303;51.960;8.372;2023-03-01T04:38:19;3.00;;;1.77;;
20287;SDS011;10303;51.960;8.372;2023-03-01T04:40:46;2.97;;;2.23;;
20287;SDS011;10303;51.960;8.372;2023-03-01T04:43:12;2.30;;;1.90;;
20287;SDS011;10303;51.960;8.372;2023-03-01T04:45:40;3.40;;;2.10;;
20287;SDS011;10303;51.960;8.372;2023-03-01T04:48:06;2.57;;;2.37;;
20287;SDS011;10303;51.960;8.372;2023-03-01T04:50:32;3.10;;;2.23;;
20287;SDS011;10303;51.960;8.372;2023-03-01T04:52:59;3.70;;;2.13;;
20287;SDS011;10303;51.960;8.372;2023-03-01T04:55:26;1.87;;;1.77;;
20287;SDS011;10303;51.960;8.372;2023-03-01T04:57:53;2.83;;;1.93;;
20287;SDS011;10303;51.960;8.372;2023-03-01T05:00:20;2.20;;;2.00;;
20287;SDS011;10303;51.960;8.372;2023-03-01T05:02:48;2.57;;;1.73;;
20287;SDS011;10303;51.960;8.372;2023-03-01T05:07:57;2.40;;;2.17;;
20287;SDS011;10303;51.960;8.372;2023-03-01T05:10:26;2.73;;;2.53;;
20287;SDS011;10303;51.960;8.372;2023-03-01T05:12:56;2.50;;;1.73;;
20287;SDS011;10303;51.960;8.372;2023-03-01T05:15:24;2.20;;;2.03;;
20287;SDS011;10303;51.960;8.372;2023-03-01T05:17:53;2.57;;;2.00;;
20287;SDS011;10303;51.960;8.372;2023-03-01T05:20:23;4.07;;;2.50;;
20287;SDS011;10303;51.960;8.372;2023-03-01T05:22:57;2.50;;;2.30;;
20287;SDS011;10303;51.960;8.372;2023-03-01T05:25:25;4.57;;;2.53;;
20287;SDS011;10303;51.960;8.372;2023-03-01T05:27:51;5.00;;;2.50;;
20287;SDS011;10303;51.960;8.372;2023-03-01T05:30:18;4.87;;;2.60;;
20287;SDS011;10303;51.960;8.372;2023-03-01T05:32:47;3.20;;;2.17;;
20287;SDS011;10303;51.960;8.372;2023-03-01T05:35:20;2.97;;;2.70;;
20287;SDS011;10303;51.960;8.372;2023-03-01T05:37:47;3.37;;;2.43;;
20287;SDS011;10303;51.960;8.372;2023-03-01T05:40:17;2.67;;;1.87;;
20287;SDS011;10303;51.960;8.372;2023-03-01T05:42:55;3.73;;;2.83;;
20287;SDS011;10303;51.960;8.372;2023-03-01T05:45:23;1.97;;;1.73;;
20287;SDS011;10303;51.960;8.372;2023-03-01T05:47:51;4.70;;;2.70;;
20287;SDS011;10303;51.960;8.372;2023-03-01T05:50:21;2.60;;;2.40;;
20287;SDS011;10303;51.960;8.372;2023-03-01T05:52:51;2.97;;;2.60;;
20287;SDS011;10303;51.960;8.372;2023-03-01T05:55:27;2.87;;;2.50;;
20287;SDS011;10303;51.960;8.372;2023-03-01T05:57:57;2.97;;;2.33;;
20287;SDS011;10303;51.960;8.372;2023-03-01T06:00:25;3.37;;;2.20;;
20287;SDS011;10303;51.960;8.372;2023-03-01T06:02:53;2.60;;;2.37;;
20287;SDS011;10303;51.960;8.372;2023-03-01T06:05:20;2.57;;;2.27;;
20287;SDS011;10303;51.960;8.372;2023-03-01T06:07:47;2.77;;;2.57;;
20287;SDS011;10303;51.960;8.372;2023-03-01T06:10:15;3.10;;;2.80;;
20287;SDS011;10303;51.960;8.372;2023-03-01T06:12:43;4.13;;;3.13;;
20287;SDS011;10303;51.960;8.372;2023-03-01T06:15:10;2.47;;;2.27;;
20287;SDS011;10303;51.960;8.372;2023-03-01T06:17:42;3.00;;;2.50;;
20287;SDS011;10303;51.960;8.372;2023-03-01T06:20:15;2.53;;;2.33;;
20287;SDS011;10303;51.960;8.372;2023-03-01T06:22:47;2.67;;;2.20;;
20287;SDS011;10303;51.960;8.372;2023-03-01T06:25:16;4.23;;;2.50;;
20287;SDS011;10303;51.960;8.372;2023-03-01T06:27:45;2.43;;;2.17;;
20287;SDS011;10303;51.960;8.372;2023-03-01T06:30:14;3.83;;;2.50;;
20287;SDS011;10303;51.960;8.372;2023-03-01T06:32:43;6.63;;;2.47;;
20287;SDS011;10303;51.960;8.372;2023-03-01T06:35:10;2.43;;;1.90;;
20287;SDS011;10303;51.960;8.372;2023-03-01T06:37:39;2.77;;;2.13;;
20287;SDS011;10303;51.960;8.372;2023-03-01T06:40:06;2.60;;;2.37;;
20287;SDS011;10303;51.960;8.372;2023-03-01T06:42:36;1.97;;;1.80;;
20287;SDS011;10303;51.960;8.372;2023-03-01T06:45:04;2.57;;;2.27;;
20287;SDS011;10303;51.960;8.372;2023-03-01T06:47:32;3.97;;;2.57;;
20287;SDS011;10303;51.960;8.372;2023-03-01T06:49:59;4.93;;;2.30;;
20287;SDS011;10303;51.960;8.372;2023-03-01T06:52:26;2.57;;;2.37;;
20287;SDS011;10303;51.960;8.372;2023-03-01T06:54:52;4.67;;;2.33;;
20287;SDS011;10303;51.960;8.372;2023-03-01T06:57:18;3.90;;;2.30;;
20287;SDS011;10303;51.960;8.372;2023-03-01T06:59:44;3.17;;;2.50;;
20287;SDS011;10303;51.960;8.372;2023-03-01T07:02:12;3.67;;;2.57;;
20287;SDS011;10303;51.960;8.372;2023-03-01T07:04:40;3.60;;;2.60;;
20287;SDS011;10303;51.960;8.372;2023-03-01T07:07:07;2.40;;;2.20;;
20287;SDS011;10303;51.960;8.372;2023-03-01T07:09:33;3.13;;;2.33;;
20287;SDS011;10303;51.960;8.372;2023-03-01T07:11:59;6.13;;;2.33;;
20287;SDS011;10303;51.960;8.372;2023-03-01T07:14:25;2.23;;;2.03;;
20287;SDS011;10303;51.960;8.372;2023-03-01T07:16:52;4.77;;;3.27;;
20287;SDS011;10303;51.960;8.372;2023-03-01T07:19:19;2.73;;;2.27;;
20287;SDS011;10303;51.960;8.372;2023-03-01T07:21:46;3.07;;;2.43;;
20287;SDS011;10303;51.960;8.372;2023-03-01T07:24:12;2.43;;;2.13;;
20287;SDS011;10303;51.960;8.372;2023-03-01T07:26:38;4.00;;;2.57;;
20287;SDS011;10303;51.960;8.372;2023-03-01T07:29:04;2.27;;;1.70;;
20287;SDS011;10303;51.960;8.372;2023-03-01T07:31:34;2.67;;;2.47;;
20287;SDS011;10303;51.960;8.372;2023-03-01T07:34:02;2.47;;;2.23;;
20287;SDS011;10303;51.960;8.372;2023-03-01T07:36:28;3.03;;;2.73;;
20287;SDS011;10303;51.960;8.372;2023-03-01T07:38:54;2.37;;;2.10;;
20287;SDS011;10303;51.960;8.372;2023-03-01T07:41:21;5.20;;;2.83;;
20287;SDS011;10303;51.960;8.372;2023-03-01T07:43:47;3.50;;;2.70;;
20287;SDS011;10303;51.960;8.372;2023-03-01T07:46:12;2.37;;;2.00;;
20287;SDS011;10303;51.960;8.372;2023-03-01T07:48:38;3.67;;;2.33;;
20287;SDS011;10303;51.960;8.372;2023-03-01T07:51:05;2.40;;;2.20;;
20287;SDS011;10303;51.960;8.372;2023-03-01T07:53:32;3.10;;;2.60;;
20287;SDS011;10303;51.960;8.372;2023-03-01T07:56:06;3.20;;;2.63;;
20287;SDS011;10303;51.960;8.372;2023-03-01T07:58:38;3.63;;;2.60;;
20287;SDS011;10303;51.960;8.372;2023-03-01T08:01:07;4.10;;;2.77;;
20287;SDS011;10303;51.960;8.372;2023-03-01T08:03:37;5.07;;;3.23;;
20287;SDS011;10303;51.960;8.372;2023-03-01T08:06:04;4.27;;;3.30;;
20287;SDS011;10303;51.960;8.372;2023-03-01T08:08:33;4.17;;;2.17;;
20287;SDS011;10303;51.960;8.372;2023-03-01T08:11:01;3.60;;;2.47;;
20287;SDS011;10303;51.960;8.372;2023-03-01T08:13:29;3.73;;;2.73;;
20287;SDS011;10303;51.960;8.372;2023-03-01T08:16:00;4.80;;;2.73;;
20287;SDS011;10303;51.960;8.372;2023-03-01T08:18:31;2.40;;;2.20;;
20287;SDS011;10303;51.960;8.372;2023-03-01T08:21:07;3.03;;;2.67;;
20287;SDS011;10303;51.960;8.372;2023-03-01T08:23:39;3.90;;;3.10;;
20287;SDS011;10303;51.960;8.372;2023-03-01T08:26:10;4.40;;;2.87;;
20287;SDS011;10303;51.960;8.372;2023-03-01T08:28:39;3.40;;;2.73;;
20287;SDS011;10303;51.960;8.372;2023-03-01T08:31:15;5.20;;;3.07;;
20287;SDS011;10303;51.960;8.372;2023-03-01T08:33:52;3.70;;;3.13;;
20287;SDS011;10303;51.960;8.372;2023-03-01T08:36:25;4.13;;;3.27;;
20287;SDS011;10303;51.960;8.372;2023-03-01T08:39:01;3.40;;;3.10;;
20287;SDS011;10303;51.960;8.372;2023-03-01T08:41:27;4.77;;;3.20;;
20287;SDS011;10303;51.960;8.372;2023-03-01T08:43:53;5.03;;;3.73;;
20287;SDS011;10303;51.960;8.372;2023-03-01T08:46:42;4.33;;;3.37;;
20287;SDS011;10303;51.960;8.372;2023-03-01T08:49:17;5.67;;;3.60;;
20287;SDS011;10303;51.960;8.372;2023-03-01T08:51:45;3.40;;;3.10;;
20287;SDS011;10303;51.960;8.372;2023-03-01T08:54:13;3.73;;;3.03;;
20287;SDS011;10303;51.960;8.372;2023-03-01T08:56:43;4.57;;;3.17;;
20287;SDS011;10303;51.960;8.372;2023-03-01T08:59:12;5.17;;;3.57;;
20287;SDS011;10303;51.960;8.372;2023-03-01T09:01:40;4.10;;;2.93;;
20287;SDS011;10303;51.960;8.372;2023-03-01T09:04:10;7.60;;;4.10;;
20287;SDS011;10303;51.960;8.372;2023-03-01T09:06:37;5.27;;;4.27;;
20287;SDS011;10303;51.960;8.372;2023-03-01T09:09:04;4.93;;;4.03;;
20287;SDS011;10303;51.960;8.372;2023-03-01T09:11:30;6.47;;;3.70;;
20287;SDS011;10303;51.960;8.372;2023-03-01T09:13:57;4.27;;;3.67;;
20287;SDS011;10303;51.960;8.372;2023-03-01T09:16:23;7.70;;;4.33;;
20287;SDS011;10303;51.960;8.372;2023-03-01T09:18:50;6.33;;;4.53;;
20287;SDS011;10303;51.960;8.372;2023-03-01T09:21:19;5.43;;;4.03;;
20287;SDS011;10303;51.960;8.372;2023-03-01T09:23:47;4.97;;;4.03;;
20287;SDS011;10303;51.960;8.372;2023-03-01T09:26:15;6.10;;;4.27;;
20287;SDS011;10303;51.960;8.372;2023-03-01T09:28:47;5.47;;;4.33;;
20287;SDS011;10303;51.960;8.372;2023-03-01T09:31:18;5.63;;;4.30;;
20287;SDS011;10303;51.960;8.372;2023-03-01T09:33:47;8.13;;;4.30;;
20287;SDS011;10303;51.960;8.372;2023-03-01T09:36:17;6.23;;;4.83;;
20287;SDS011;10303;51.960;8.372;2023-03-01T09:38:46;9.63;;;5.63;;
20287;SDS011;10303;51.960;8.372;2023-03-01T09:43:56;8.47;;;5.83;;
20287;SDS011;10303;51.960;8.372;2023-03-01T09:46:32;7.70;;;4.90;;
20287;SDS011;10303;51.960;8.372;2023-03-01T09:49:12;7.73;;;4.70;;
20287;SDS011;10303;51.960;8.372;2023-03-01T09:54:34;9.40;;;5.33;;
20287;SDS011;10303;51.960;8.372;2023-03-01T09:57:11;10.27;;;5.20;;
20287;SDS011;10303;51.960;8.372;2023-03-01T09:59:49;8.83;;;5.20;;
20287;SDS011;10303;51.960;8.372;2023-03-01T10:02:29;6.17;;;4.80;;
20287;SDS011;10303;51.960;8.372;2023-03-01T10:08:50;6.03;;;4.90;;
20287;SDS011;10303;51.960;8.372;2023-03-01T10:11:32;7.23;;;4.83;;
20287;SDS011;10303;51.960;8.372;2023-03-01T10:14:09;6.80;;;5.43;;
20287;SDS011;10303;51.960;8.372;2023-03-01T10:16:59;7.17;;;4.90;;
20287;SDS011;10303;51.960;8.372;2023-03-01T10:19:44;7.00;;;4.97;;
20287;SDS011;10303;51.960;8.372;2023-03-01T10:22:15;8.60;;;5.60;;
20287;SDS011;10303;51.960;8.372;2023-03-01T10:24:46;5.13;;;4.63;;
20287;SDS011;10303;51.960;8.372;2023-03-01T10:27:22;5.50;;;3.50;;
20287;SDS011;10303;51.960;8.372;2023-03-01T10:32:37;5.77;;;4.60;;
20287;SDS011;10303;51.960;8.372;2023-03-01T10:38:05;4.77;;;4.30;;
20287;SDS011;10303;51.960;8.372;2023-03-01T10:40:52;6.80;;;4.07;;
20287;SDS011;10303;51.960;8.372;2023-03-01T10:43:46;4.83;;;3.63;;
20287;SDS011;10303;51.960;8.372;2023-03-01T10:46:33;4.10;;;3.60;;
20287;SDS011;10303;51.960;8.372;2023-03-01T10:49:12;4.33;;;3.93;;
20287;SDS011;10303;51.960;8.372;2023-03-01T10:51:46;4.03;;;3.50;;
20287;SDS011;10303;51.960;8.372;2023-03-01T10:54:25;4.33;;;3.67;;
20287;SDS011;10303;51.960;8.372;2023-03-01T10:57:00;6.57;;;4.83;;
20287;SDS011;10303;51.960;8.372;2023-03-01T10:59:33;4.13;;;3.73;;
20287;SDS011;10303;51.960;8.372;2023-03-01T11:02:21;3.57;;;3.27;;
20287;SDS011;10303;51.960;8.372;2023-03-01T11:10:26;5.37;;;3.90;;
20287;SDS011;10303;51.960;8.372;2023-03-01T11:13:05;4.87;;;4.10;;
20287;SDS011;10303;51.960;8.372;2023-03-01T11:18:32;6.50;;;4.13;;
20287;SDS011;10303;51.960;8.372;2023-03-01T11:20:59;6.20;;;4.87;;
20287;SDS011;10303;51.960;8.372;2023-03-01T11:23:29;6.40;;;4.60;;
20287;SDS011;10303;51.960;8.372;2023-03-01T11:26:05;5.27;;;4.57;;
20287;SDS011;10303;51.960;8.372;2023-03-01T11:28:34;5.13;;;3.87;;
20287;SDS011;10303;51.960;8.372;2023-03-01T11:31:09;4.53;;;4.03;;
20287;SDS011;10303;51.960;8.372;2023-03-01T11:33:44;4.33;;;3.60;;
20287;SDS011;10303;51.960;8.372;2023-03-01T11:36:32;7.83;;;4.93;;
20287;SDS011;10303;51.960;8.372;2023-03-01T11:42:00;5.47;;;4.23;;
20287;SDS011;10303;51.960;8.372;2023-03-01T11:44:35;5.93;;;4.23;;
20287;SDS011;10303;51.960;8.372;2023-03-01T11:50:06;4.37;;;3.97;;
20287;SDS011;10303;51.960;8.372;2023-03-01T11:58:17;4.30;;;3.40;;
20287;SDS011;10303;51.960;8.372;2023-03-01T12:07:01;7.53;;;4.17;;
20287;SDS011;10303;51.960;8.372;2023-03-01T12:09:38;6.50;;;4.13;;
20287;SDS011;10303;51.960;8.372;2023-03-01T12:24:41;3.17;;;2.87;;
20287;SDS011;10303;51.960;8.372;2023-03-01T12:27:44;3.10;;;2.73;;
20287;SDS011;10303;51.960;8.372;2023-03-01T12:30:43;3.77;;;2.50;;
20287;SDS011;10303;51.960;8.372;2023-03-01T12:34:01;3.63;;;2.50;;
20287;SDS011;10303;51.960;8.372;2023-03-01T12:36:42;3.50;;;2.63;;
20287;SDS011;10303;51.960;8.372;2023-03-01T12:39:45;2.70;;;2.33;;
20287;SDS011;10303;51.960;8.372;2023-03-01T12:42:46;3.17;;;2.43;;
20287;SDS011;10303;51.960;8.372;2023-03-01T12:46:04;3.67;;;2.97;;
20287;SDS011;10303;51.960;8.372;2023-03-01T12:48:49;3.50;;;2.73;;
20287;SDS011;10303;51.960;8.372;2023-03-01T12:51:42;3.50;;;3.07;;
20287;SDS011;10303;51.960;8.372;2023-03-01T12:54:30;4.13;;;2.47;;
20287;SDS011;10303;51.960;8.372;2023-03-01T12:57:03;3.97;;;2.73;;
20287;SDS011;10303;51.960;8.372;2023-03-01T12:59:51;4.03;;;3.20;;
20287;SDS011;10303;51.960;8.372;2023-03-01T13:02:47;3.50;;;3.17;;
20287;SDS011;10303;51.960;8.372;2023-03-01T13:08:24;3.80;;;3.03;;
20287;SDS011;10303;51.960;8.372;2023-03-01T13:11:20;3.13;;;2.83;;
20287;SDS011;10303;51.960;8.372;2023-03-01T13:13:48;3.53;;;3.20;;
20287;SDS011;10303;51.960;8.372;2023-03-01T13:19:06;4.00;;;3.23;;
20287;SDS011;10303;51.960;8.372;2023-03-01T13:21:39;4.00;;;2.80;;
20287;SDS011;10303;51.960;8.372;2023-03-01T13:24:22;3.43;;;2.73;;
20287;SDS011;10303;51.960;8.372;2023-03-01T13:34:51;3.83;;;3.13;;
20287;SDS011;10303;51.960;8.372;2023-03-01T13:37:22;3.27;;;2.97;;
20287;SDS011;10303;51.960;8.372;2023-03-01T13:39:58;2.60;;;2.40;;
20287;SDS011;10303;51.960;8.372;2023-03-01T13:42:34;3.40;;;3.10;;
20287;SDS011;10303;51.960;8.372;2023-03-01T13:47:58;5.77;;;3.00;;
20287;SDS011;10303;51.960;8.372;2023-03-01T13:50:28;3.13;;;2.70;;
20287;SDS011;10303;51.960;8.372;2023-03-01T13:53:03;2.97;;;2.00;;
20287;SDS011;10303;51.960;8.372;2023-03-01T14:01:05;3.30;;;2.97;;
20287;SDS011;10303;51.960;8.372;2023-03-01T14:03:39;2.93;;;1.90;;
20287;SDS011;10303;51.960;8.372;2023-03-01T14:06:14;2.23;;;2.03;;
20287;SDS011;10303;51.960;8.372;2023-03-01T14:08:45;3.87;;;2.03;;
20287;SDS011;10303;51.960;8.372;2023-03-01T14:14:39;6.03;;;3.00;;
20287;SDS011;10303;51.960;8.372;2023-03-01T14:20:20;2.90;;;2.53;;
20287;SDS011;10303;51.960;8.372;2023-03-01T14:22:51;2.63;;;2.27;;
20287;SDS011;10303;51.960;8.372;2023-03-01T14:25:22;2.37;;;2.17;;
20287;SDS011;10303;51.960;8.372;2023-03-01T14:28:04;3.07;;;2.20;;
20287;SDS011;10303;51.960;8.372;2023-03-01T14:30:55;4.63;;;2.37;;
20287;SDS011;10303;51.960;8.372;2023-03-01T14:33:28;2.27;;;2.07;;
20287;SDS011;10303;51.960;8.372;2023-03-01T14:36:03;3.00;;;1.90;;
20287;SDS011;10303;51.960;8.372;2023-03-01T14:38:39;2.63;;;2.10;;
20287;SDS011;10303;51.960;8.372;2023-03-01T14:41:26;3.80;;;1.93;;
20287;SDS011;10303;51.960;8.372;2023-03-01T14:44:36;3.87;;;2.40;;
20287;SDS011;10303;51.960;8.372;2023-03-01T14:46:51;2.50;;;2.30;;
20287;SDS011;10303;51.960;8.372;2023-03-01T14:49:23;2.57;;;2.37;;
20287;SDS011;10303;51.960;8.372;2023-03-01T14:51:57;3.43;;;2.30;;
20287;SDS011;10303;51.960;8.372;2023-03-01T14:57:15;2.30;;;2.03;;
20287;SDS011;10303;51.960;8.372;2023-03-01T14:59:50;3.53;;;2.23;;
20287;SDS011;10303;51.960;8.372;2023-03-01T15:02:24;2.87;;;2.23;;
20287;SDS011;10303;51.960;8.372;2023-03-01T15:04:56;2.47;;;2.00;;
20287;SDS011;10303;51.960;8.372;2023-03-01T15:07:28;5.10;;;2.10;;
20287;SDS011;10303;51.960;8.372;2023-03-01T15:09:59;2.20;;;1.70;;
20287;SDS011;10303;51.960;8.372;2023-03-01T15:14:55;3.70;;;2.60;;
20287;SDS011;10303;51.960;8.372;2023-03-01T15:20:04;2.67;;;1.97;;
20287;SDS011;10303;51.960;8.372;2023-03-01T15:22:43;3.67;;;2.37;;
20287;SDS011;10303;51.960;8.372;2023-03-01T15:25:16;2.37;;;1.53;;
20287;SDS011;10303;51.960;8.372;2023-03-01T15:27:47;2.47;;;1.93;;
20287;SDS011;10303;51.960;8.372;2023-03-01T15:30:23;3.17;;;1.90;;
20287;SDS011;10303;51.960;8.372;2023-03-01T15:35:57;2.87;;;2.27;;
20287;SDS011;10303;51.960;8.372;2023-03-01T15:38:33;2.43;;;2.17;;
20287;SDS011;10303;51.960;8.372;2023-03-01T15:41:29;2.20;;;2.00;;
20287;SDS011;10303;51.960;8.372;2023-03-01T15:44:25;2.40;;;2.10;;
20287;SDS011;10303;51.960;8.372;2023-03-01T15:46:57;4.00;;;1.90;;
20287;SDS011;10303;51.960;8.372;2023-03-01T15:52:13;4.13;;;2.13;;
20287;SDS011;10303;51.960;8.372;2023-03-01T15:54:55;3.00;;;2.10;;
20287;SDS011;10303;51.960;8.372;2023-03-01T15:57:24;2.53;;;1.90;;
20287;SDS011;10303;51.960;8.372;2023-03-01T15:59:50;2.50;;;1.67;;
20287;SDS011;10303;51.960;8.372;2023-03-01T16:02:16;2.33;;;1.43;;
20287;SDS011;10303;51.960;8.372;2023-03-01T16:04:41;4.87;;;1.80;;
20287;SDS011;10303;51.960;8.372;2023-03-01T16:07:08;3.27;;;1.93;;
20287;SDS011;10303;51.960;8.372;2023-03-01T16:09:35;2.10;;;1.83;;
20287;SDS011;10303;51.960;8.372;2023-03-01T16:12:01;1.67;;;1.57;;
20287;SDS011;10303;51.960;8.372;2023-03-01T16:14:27;1.50;;;1.40;;
20287;SDS011;10303;51.960;8.372;2023-03-01T16:16:53;2.73;;;1.83;;
20287;SDS011;10303;51.960;8.372;2023-03-01T16:19:19;2.03;;;1.83;;
20287;SDS011;10303;51.960;8.372;2023-03-01T16:21:45;2.33;;;1.63;;
20287;SDS011;10303;51.960;8.372;2023-03-01T16:24:12;1.97;;;1.70;;
20287;SDS011;10303;51.960;8.372;2023-03-01T16:26:38;2.87;;;1.70;;
20287;SDS011;10303;51.960;8.372;2023-03-01T16:29:04;3.07;;;1.73;;
20287;SDS011;10303;51.960;8.372;2023-03-01T16:31:30;2.10;;;1.70;;
20287;SDS011;10303;51.960;8.372;2023-03-01T16:33:58;3.23;;;1.70;;
20287;SDS011;10303;51.960;8.372;2023-03-01T16:36:26;2.87;;;1.47;;
20287;SDS011;10303;51.960;8.372;2023-03-01T16:38:57;2.10;;;1.57;;
20287;SDS011;10303;51.960;8.372;2023-03-01T16:41:25;1.73;;;1.63;;
20287;SDS011;10303;51.960;8.372;2023-03-01T16:43:53;2.63;;;2.10;;
20287;SDS011;10303;51.960;8.372;2023-03-01T16:46:21;1.50;;;1.40;;
20287;SDS011;10303;51.960;8.372;2023-03-01T16:48:51;2.67;;;1.83;;
20287;SDS011;10303;51.960;8.372;2023-03-01T16:51:17;2.00;;;1.57;;
20287;SDS011;10303;51.960;8.372;2023-03-01T16:53:45;1.97;;;1.53;;
20287;SDS011;10303;51.960;8.372;2023-03-01T16:56:11;1.10;;;1.00;;
20287;SDS011;10303;51.960;8.372;2023-03-01T16:58:40;1.07;;;0.90;;
20287;SDS011;10303;51.960;8.372;2023-03-01T17:01:08;1.27;;;1.17;;
20287;SDS011;10303;51.960;8.372;2023-03-01T17:03:52;1.90;;;1.70;;